Time;durP1;ratioP1;P1;durP2;ratioP2;P2;SDS_P1;SDS_P2;PMS_P1;PMS_P2;Temp;Humidity;BMP_temperature;BMP_pressure;BME280_temperature;BME280_humidity;BME280_pressure;Samples;Min_cycle;Max_cycle;Signal;HPM_P1;HPM_P2
2023/10/14 00:02:12;;;;;;;4.18;1.77;;;26.40;36.10;;;;;;2335504;54;20921;-65
2023/10/14 00:04:39;;;;;;;4.93;1.80;;;26.40;36.20;;;;;;2585900;53;20964;-65
2023/10/14 00:07:08;;;;;;;3.65;1.90;;;26.40;36.30;;;;;;2566929;53;20983;-65
2023/10/14 00:09:42;;;;;;;4.20;1.65;;;26.30;36.50;;;;;;2331405;54;20953;-64
2023/10/14 00:12:20;;;;;;;4.25;1.92;;;26.30;36.70;;;;;;2341394;54;21864;-67
2023/10/14 00:14:48;;;;;;;3.72;1.83;;;26.30;36.90;;;;;;2586540;53;20956;-67
2023/10/14 00:17:18;;;;;;;3.85;1.60;;;26.30;37.20;;;;;;2340866;54;21000;-64
2023/10/14 00:19:53;;;;;;;3.58;2.00;;;26.30;37.40;;;;;;2319026;54;21122;-68
2023/10/14 00:22:20;;;;;;;5.15;2.10;;;26.20;37.60;;;;;;2340289;54;21052;-64
2023/10/14 00:24:48;;;;;;;3.30;1.80;;;26.20;37.90;;;;;;2340551;54;21236;-68
2023/10/14 00:27:15;;;;;;;4.78;1.98;;;26.20;38.10;;;;;;2341379;54;21040;-64
2023/10/14 00:29:41;;;;;;;3.60;1.95;;;26.10;38.20;;;;;;2586264;53;20956;-64
2023/10/14 00:32:08;;;;;;;4.15;1.80;;;26.10;38.40;;;;;;2341349;55;21012;-64
2023/10/14 00:34:34;;;;;;;5.78;2.03;;;26.10;38.60;;;;;;2340225;54;21013;-64
2023/10/14 00:37:01;;;;;;;4.53;2.42;;;26.10;38.80;;;;;;2340741;54;20964;-65
2023/10/14 00:39:27;;;;;;;3.72;2.00;;;26.10;38.90;;;;;;2586453;53;21331;-64
2023/10/14 00:41:55;;;;;;;4.40;1.95;;;26.10;39.10;;;;;;2340306;55;20960;-64
2023/10/14 00:44:25;;;;;;;5.00;2.25;;;26.00;39.20;;;;;;2342048;55;21012;-64
2023/10/14 00:46:53;;;;;;;5.97;2.25;;;26.00;39.20;;;;;;2341099;54;21112;-63
2023/10/14 00:49:34;;;;;;;3.30;2.08;;;26.00;39.40;;;;;;2340709;55;20964;-64
2023/10/14 00:52:07;;;;;;;4.68;2.30;;;26.00;39.70;;;;;;2339812;55;21098;-65
2023/10/14 00:57:54;;;;;;;3.58;2.05;;;26.00;39.80;;;;;;2338113;54;20933;-65
2023/10/14 01:00:34;;;;;;;4.62;2.50;;;26.00;39.90;;;;;;2585935;53;20925;-65
2023/10/14 01:03:03;;;;;;;6.78;2.42;;;26.00;40.10;;;;;;2585640;53;22004;-65
2023/10/14 01:05:29;;;;;;;3.62;2.00;;;25.90;40.10;;;;;;2568556;53;21515;-66
2023/10/14 01:08:02;;;;;;;4.53;2.20;;;25.90;40.20;;;;;;2571026;53;20941;-64
2023/10/14 01:10:29;;;;;;;4.43;2.37;;;26.00;40.40;;;;;;2337430;54;21061;-64
2023/10/14 01:12:56;;;;;;;5.57;2.35;;;25.90;40.50;;;;;;2300482;55;20940;-64
2023/10/14 01:15:23;;;;;;;6.43;2.45;;;25.90;40.60;;;;;;2340000;55;20909;-65
2023/10/14 01:17:53;;;;;;;5.00;2.70;;;25.90;40.80;;;;;;2339168;54;20945;-64
2023/10/14 01:22:57;;;;;;;3.78;2.05;;;25.90;40.90;;;;;;2340333;54;20949;-64
2023/10/14 01:25:32;;;;;;;3.67;2.10;;;25.90;41.00;;;;;;2339950;54;20973;-66
2023/10/14 01:27:59;;;;;;;7.32;2.92;;;25.90;41.10;;;;;;2339617;54;20961;-64
2023/10/14 01:30:32;;;;;;;4.85;2.65;;;25.70;41.10;;;;;;2587163;53;20921;-65
2023/10/14 01:33:12;;;;;;;3.90;2.42;;;25.90;41.40;;;;;;2586012;53;21016;-63
2023/10/14 01:35:45;;;;;;;3.72;2.15;;;25.80;41.30;;;;;;2586484;53;20996;-64
2023/10/14 01:38:15;;;;;;;5.00;2.45;;;25.80;41.40;;;;;;2586899;53;20953;-64
2023/10/14 01:40:49;;;;;;;5.10;2.72;;;25.80;41.50;;;;;;2340187;55;20948;-64
2023/10/14 01:43:23;;;;;;;4.25;2.40;;;25.80;41.60;;;;;;2586610;53;21000;-64
2023/10/14 01:46:00;;;;;;;4.43;2.75;;;25.80;41.80;;;;;;2584891;53;21041;-65
2023/10/14 01:48:30;;;;;;;5.05;2.72;;;25.80;41.80;;;;;;2308291;55;20934;-64
2023/10/14 01:50:57;;;;;;;4.97;2.42;;;25.80;41.90;;;;;;2311326;54;21016;-64
2023/10/14 01:53:27;;;;;;;4.57;2.62;;;25.80;41.90;;;;;;2547919;53;20948;-64
2023/10/14 01:55:58;;;;;;;3.90;2.45;;;25.80;42.10;;;;;;2312724;54;21010;-67
2023/10/14 01:58:32;;;;;;;4.18;2.60;;;25.80;42.10;;;;;;2308927;55;20993;-64
2023/10/14 02:01:28;;;;;;;6.43;2.40;;;25.80;42.10;;;;;;2571385;53;20958;-65
2023/10/14 02:03:56;;;;;;;4.43;2.45;;;25.80;42.60;;;;;;2585850;53;20925;-64
2023/10/14 02:06:30;;;;;;;5.80;2.40;;;25.70;42.10;;;;;;2586331;53;20988;-65
2023/10/14 02:09:04;;;;;;;4.57;2.35;;;25.70;42.20;;;;;;2339197;55;20981;-65
2023/10/14 02:11:33;;;;;;;5.90;2.47;;;25.70;42.20;;;;;;2586886;53;20932;-64
2023/10/14 02:14:11;;;;;;;4.43;2.20;;;25.70;42.30;;;;;;2585884;53;20961;-64
2023/10/14 02:16:44;;;;;;;5.28;2.22;;;25.70;42.30;;;;;;2339957;55;20945;-66
2023/10/14 02:25:09;;;;;;;4.18;2.03;;;25.70;42.50;;;;;;2553378;53;21535;-66
2023/10/14 02:27:35;;;;;;;3.80;2.15;;;25.70;42.20;;;;;;2340312;55;20956;-67
2023/10/14 02:30:05;;;;;;;4.72;2.55;;;25.70;42.30;;;;;;2339166;54;21815;-63
2023/10/14 02:32:34;;;;;;;4.37;2.08;;;25.70;42.50;;;;;;2339985;54;21001;-63
2023/10/14 02:35:00;;;;;;;3.78;2.28;;;25.70;42.70;;;;;;2340144;55;20956;-65
2023/10/14 02:37:26;;;;;;;5.12;2.53;;;25.70;42.70;;;;;;2316815;55;21047;-66
2023/10/14 02:39:55;;;;;;;5.22;2.72;;;25.70;42.80;;;;;;2585673;53;20965;-69
2023/10/14 02:42:21;;;;;;;6.12;2.40;;;25.70;42.80;;;;;;2557871;53;20949;-69
2023/10/14 02:44:54;;;;;;;6.87;2.65;;;25.60;42.80;;;;;;2337302;54;20944;-64
2023/10/14 02:47:27;;;;;;;6.37;2.45;;;25.60;42.90;;;;;;2316301;54;20936;-65
2023/10/14 02:50:04;;;;;;;3.85;2.17;;;25.60;42.90;;;;;;2340174;54;21755;-66
2023/10/14 02:52:31;;;;;;;4.28;2.35;;;25.60;43.00;;;;;;2547458;54;21321;-68
2023/10/14 02:57:45;;;;;;;4.22;2.30;;;25.60;43.20;;;;;;2307918;55;20941;-66
2023/10/14 03:00:16;;;;;;;6.12;2.80;;;25.60;43.30;;;;;;2307972;55;20940;-68
2023/10/14 03:02:48;;;;;;;4.43;2.62;;;25.50;43.40;;;;;;2546958;54;20909;-67
2023/10/14 03:05:32;;;;;;;7.47;2.47;;;25.50;43.50;;;;;;2547748;54;20922;-65
2023/10/14 03:08:08;;;;;;;3.72;2.17;;;25.50;43.60;;;;;;2308306;55;20912;-65
2023/10/14 03:10:39;;;;;;;6.25;3.33;;;25.40;43.70;;;;;;2308817;55;21944;-65
2023/10/14 03:13:12;;;;;;;4.85;2.62;;;25.40;43.70;;;;;;2308048;55;21004;-65
2023/10/14 03:15:39;;;;;;;6.75;2.37;;;25.40;44.00;;;;;;2309030;55;20945;-65
2023/10/14 03:18:06;;;;;;;4.95;2.67;;;25.40;44.00;;;;;;2308086;55;20917;-66
2023/10/14 03:20:39;;;;;;;4.93;2.47;;;25.30;44.00;;;;;;2309716;55;20928;-67
2023/10/14 03:23:11;;;;;;;6.37;2.62;;;25.30;44.20;;;;;;2512130;54;21071;-67
2023/10/14 03:25:38;;;;;;;5.10;2.85;;;25.30;44.30;;;;;;2309449;55;20959;-65
2023/10/14 03:28:14;;;;;;;5.53;2.85;;;25.30;44.40;;;;;;2308724;54;20992;-66
2023/10/14 03:30:45;;;;;;;6.30;3.30;;;25.30;44.50;;;;;;2548568;53;20944;-65
2023/10/14 03:33:19;;;;;;;5.45;2.60;;;25.30;44.60;;;;;;2547861;53;21037;-65
2023/10/14 03:35:57;;;;;;;5.25;2.28;;;25.30;44.80;;;;;;2307348;55;20890;-67
2023/10/14 03:41:53;;;;;;;6.93;2.50;;;25.20;45.00;;;;;;2557576;53;21736;-66
2023/10/14 03:44:23;;;;;;;4.70;2.60;;;25.20;45.10;;;;;;2551733;53;21079;-65
2023/10/14 03:46:59;;;;;;;6.35;2.75;;;25.20;45.20;;;;;;2541544;53;21291;-65
2023/10/14 03:49:26;;;;;;;4.78;2.75;;;25.20;45.40;;;;;;2309770;54;20977;-65
2023/10/14 03:51:56;;;;;;;5.35;2.97;;;25.10;45.30;;;;;;2309473;55;21088;-67
2023/10/14 03:54:24;;;;;;;4.10;2.30;;;25.00;45.50;;;;;;2315846;54;20925;-70
2023/10/14 03:56:50;;;;;;;5.70;3.05;;;25.00;45.60;;;;;;2309111;55;20917;-66
2023/10/14 03:59:21;;;;;;;5.78;2.70;;;25.00;45.70;;;;;;2308495;54;22035;-64
2023/10/14 04:01:54;;;;;;;5.95;2.62;;;25.00;45.80;;;;;;2327034;55;21027;-67
2023/10/14 04:04:22;;;;;;;6.00;2.33;;;25.00;45.80;;;;;;2335486;54;21063;-65
2023/10/14 04:11:13;;;;;;;4.40;2.00;;;24.90;45.90;;;;;;2318859;55;20977;-67
2023/10/14 04:13:42;;;;;;;5.68;2.62;;;24.90;45.70;;;;;;2547986;53;21008;-68
2023/10/14 04:16:12;;;;;;;4.97;2.40;;;24.90;46.00;;;;;;2534322;53;21053;-67
2023/10/14 04:18:43;;;;;;;4.53;2.42;;;24.90;46.10;;;;;;2307384;54;21898;-65
2023/10/14 04:21:19;;;;;;;4.55;2.40;;;24.80;46.20;;;;;;2304424;55;21045;-67
2023/10/14 04:26:34;;;;;;;6.90;2.42;;;24.80;46.10;;;;;;2304068;55;21046;-67
2023/10/14 04:29:02;;;;;;;5.25;2.15;;;24.80;46.20;;;;;;2308468;54;21012;-68
2023/10/14 04:31:54;;;;;;;;;;;;;;;;;;;;;
2023/10/14 04:34:22;;;;;;;4.53;2.15;;;24.80;46.50;;;;;;2335573;55;20915;-65
2023/10/14 04:36:54;;;;;;;4.93;2.17;;;24.70;46.20;;;;;;2318482;55;21363;-69
2023/10/14 04:39:33;;;;;;;5.22;2.40;;;24.70;46.30;;;;;;2308405;54;21013;-66
2023/10/14 04:42:45;;;;;;;5.07;1.80;;;24.70;46.40;;;;;;2547816;53;21017;-68
2023/10/14 04:45:14;;;;;;;6.18;2.35;;;24.70;46.30;;;;;;2516427;53;20993;-66
2023/10/14 04:47:44;;;;;;;4.90;2.12;;;24.70;46.30;;;;;;2332511;55;20972;-66
2023/10/14 04:50:13;;;;;;;5.78;2.30;;;24.50;46.30;;;;;;2575342;53;20978;-66
2023/10/14 04:52:48;;;;;;;4.62;2.30;;;24.60;46.50;;;;;;2332633;55;20971;-68
2023/10/14 04:58:23;;;;;;;5.25;2.35;;;24.60;46.60;;;;;;2331822;54;21888;-66
2023/10/14 05:00:49;;;;;;;4.70;2.47;;;24.60;46.60;;;;;;2576096;53;20958;-66
2023/10/14 05:03:23;;;;;;;4.57;2.85;;;24.50;46.80;;;;;;2331629;55;20939;-65
2023/10/14 05:05:56;;;;;;;6.05;2.60;;;24.50;46.80;;;;;;2331945;54;20986;-66
2023/10/14 05:08:24;;;;;;;4.82;2.28;;;24.50;47.00;;;;;;2331760;55;20922;-67
2023/10/14 05:10:50;;;;;;;5.32;2.50;;;24.50;47.10;;;;;;2331998;55;21024;-66
2023/10/14 05:13:34;;;;;;;4.82;2.70;;;24.40;47.10;;;;;;2331661;55;21470;-66
2023/10/14 05:16:15;;;;;;;6.05;2.60;;;24.40;47.30;;;;;;2575573;53;20972;-65
2023/10/14 05:18:48;;;;;;;6.62;2.47;;;24.40;47.20;;;;;;2289828;55;21035;-65
2023/10/14 05:21:35;;;;;;;4.68;2.40;;;24.40;47.20;;;;;;2574680;53;20986;-65
2023/10/14 05:24:03;;;;;;;6.43;2.53;;;24.40;47.30;;;;;;2576299;53;20942;-69
2023/10/14 05:26:35;;;;;;;5.43;2.45;;;24.40;47.40;;;;;;2332037;55;21801;-65
2023/10/14 05:29:16;;;;;;;5.97;2.65;;;24.30;47.40;;;;;;2332245;54;20998;-67
2023/10/14 05:31:44;;;;;;;6.18;2.40;;;24.30;47.60;;;;;;2331810;54;20963;-67
2023/10/14 05:34:10;;;;;;;4.62;2.58;;;24.30;47.50;;;;;;2306704;54;20964;-66
2023/10/14 05:36:38;;;;;;;4.93;2.55;;;24.30;47.60;;;;;;2310414;54;20929;-66
2023/10/14 05:39:06;;;;;;;5.40;2.60;;;24.30;47.80;;;;;;2309073;54;20968;-65
2023/10/14 05:41:33;;;;;;;4.87;2.47;;;24.20;47.80;;;;;;2304055;54;20985;-66
2023/10/14 05:43:59;;;;;;;6.72;2.50;;;24.30;48.00;;;;;;2308897;55;21064;-65
2023/10/14 05:46:25;;;;;;;4.22;2.35;;;24.20;48.00;;;;;;2307952;54;21339;-65
2023/10/14 05:48:53;;;;;;;5.22;2.37;;;24.20;48.10;;;;;;2309287;55;21005;-65
2023/10/14 05:51:20;;;;;;;5.57;2.78;;;24.20;48.20;;;;;;2309496;54;21025;-65
2023/10/14 05:53:48;;;;;;;5.22;2.58;;;24.20;48.30;;;;;;2311054;54;20905;-66
2023/10/14 05:56:15;;;;;;;4.07;2.22;;;24.20;48.40;;;;;;2546982;54;20929;-67
2023/10/14 05:58:42;;;;;;;4.97;2.47;;;24.10;48.40;;;;;;2308875;55;20981;-70
2023/10/14 06:01:13;;;;;;;5.20;2.90;;;24.10;48.40;;;;;;2308710;54;20924;-66
2023/10/14 06:03:42;;;;;;;4.15;2.15;;;24.10;48.70;;;;;;2304534;54;20985;-66
2023/10/14 06:06:14;;;;;;;5.78;3.00;;;24.10;48.60;;;;;;2304073;55;21723;-65
2023/10/14 06:08:41;;;;;;;7.80;2.67;;;24.00;48.60;;;;;;2306572;54;20986;-68
2023/10/14 06:11:07;;;;;;;6.53;2.50;;;24.00;48.60;;;;;;2546835;54;25774;-65
2023/10/14 06:13:34;;;;;;;5.35;2.60;;;24.00;48.70;;;;;;2546568;54;20933;-65
2023/10/14 06:16:10;;;;;;;5.18;2.70;;;23.90;48.70;;;;;;2551427;53;20921;-65
2023/10/14 06:18:40;;;;;;;5.00;2.10;;;23.90;49.10;;;;;;2321287;55;21417;-67
2023/10/14 06:21:08;;;;;;;5.68;2.47;;;23.90;49.00;;;;;;2547428;54;20914;-65
2023/10/14 06:23:34;;;;;;;5.37;2.50;;;23.90;48.90;;;;;;2547904;53;20951;-67
2023/10/14 06:26:01;;;;;;;6.22;2.60;;;23.90;49.00;;;;;;2308440;55;20955;-67
2023/10/14 06:28:30;;;;;;;6.30;2.70;;;23.90;49.10;;;;;;2309032;55;21154;-68
2023/10/14 06:31:03;;;;;;;4.30;2.10;;;23.80;49.10;;;;;;2309436;54;20947;-66
2023/10/14 06:33:30;;;;;;;4.32;2.00;;;23.80;49.20;;;;;;2308057;54;21012;-66
2023/10/14 06:36:03;;;;;;;4.32;2.35;;;23.80;49.20;;;;;;2309189;54;20916;-66
2023/10/14 06:38:29;;;;;;;3.80;2.03;;;23.80;49.30;;;;;;2308701;54;21002;-70
2023/10/14 06:41:01;;;;;;;4.00;2.50;;;23.80;49.40;;;;;;2309198;54;20957;-66
2023/10/14 06:43:33;;;;;;;4.50;2.40;;;23.80;49.50;;;;;;2546589;53;21800;-66
2023/10/14 06:45:59;;;;;;;9.15;2.90;;;23.80;49.50;;;;;;2305668;54;21002;-68
2023/10/14 06:48:27;;;;;;;6.97;2.60;;;23.80;49.60;;;;;;2553228;53;20967;-66
2023/10/14 06:50:54;;;;;;;6.10;2.67;;;23.80;49.60;;;;;;2332045;54;21422;-66
2023/10/14 06:53:21;;;;;;;6.87;2.50;;;23.80;49.70;;;;;;2328200;54;21018;-66
2023/10/14 06:55:49;;;;;;;4.32;1.87;;;23.70;49.60;;;;;;2331561;55;20998;-67
2023/10/14 06:58:27;;;;;;;4.15;2.08;;;23.70;49.60;;;;;;2331082;55;21759;-68
2023/10/14 07:00:56;;;;;;;4.68;2.30;;;23.70;49.60;;;;;;2309595;55;21001;-65
2023/10/14 07:03:22;;;;;;;5.45;2.90;;;23.70;49.70;;;;;;2308494;55;21655;-67
2023/10/14 07:05:58;;;;;;;4.43;2.05;;;23.70;49.70;;;;;;2308540;55;21387;-65
2023/10/14 07:08:27;;;;;;;5.43;2.47;;;23.80;50.00;;;;;;2308320;54;21081;-66
2023/10/14 07:10:55;;;;;;;6.95;2.62;;;23.70;49.90;;;;;;2309042;55;20921;-65
2023/10/14 07:13:25;;;;;;;6.20;2.70;;;23.80;50.00;;;;;;2308446;55;21009;-65
2023/10/14 07:15:51;;;;;;;7.00;2.37;;;23.80;50.00;;;;;;2304394;54;21012;-65
2023/10/14 07:18:24;;;;;;;6.90;2.40;;;23.70;49.90;;;;;;2546854;53;21764;-65
2023/10/14 07:20:57;;;;;;;5.18;2.30;;;23.80;50.00;;;;;;2547885;53;20936;-68
2023/10/14 07:23:23;;;;;;;4.05;2.15;;;23.80;50.20;;;;;;2547722;53;20936;-69
2023/10/14 07:25:52;;;;;;;4.78;2.10;;;23.80;50.00;;;;;;2548931;53;21028;-68
2023/10/14 07:28:20;;;;;;;4.00;2.25;;;23.80;50.00;;;;;;2308789;55;20973;-67
2023/10/14 07:30:46;;;;;;;4.57;2.47;;;23.80;50.00;;;;;;2309282;55;20961;-65
2023/10/14 07:33:13;;;;;;;3.58;1.67;;;23.80;50.00;;;;;;2547146;54;21035;-66
2023/10/14 07:35:42;;;;;;;5.32;2.08;;;23.80;50.00;;;;;;2308864;55;21020;-65
2023/10/14 07:38:12;;;;;;;3.67;1.55;;;23.80;50.00;;;;;;2542238;54;20940;-67
2023/10/14 07:40:41;;;;;;;3.75;1.70;;;23.80;49.90;;;;;;2303870;54;20941;-66
2023/10/14 07:43:10;;;;;;;4.72;1.90;;;23.80;50.40;;;;;;2302546;54;21009;-65
2023/10/14 07:45:43;;;;;;;3.62;1.35;;;23.80;49.80;;;;;;2540115;54;21415;-65
2023/10/14 07:48:12;;;;;;;5.05;1.75;;;23.80;49.90;;;;;;2294526;55;20937;-64
2023/10/14 07:50:46;;;;;;;5.00;1.60;;;23.80;49.80;;;;;;2535604;54;20969;-65
2023/10/14 07:53:13;;;;;;;3.45;1.48;;;23.80;50.00;;;;;;2302795;54;20997;-67
2023/10/14 07:55:47;;;;;;;4.37;1.85;;;23.80;49.90;;;;;;2545241;53;20945;-65
2023/10/14 07:58:16;;;;;;;4.95;1.73;;;23.80;50.20;;;;;;2322623;54;20987;-65
2023/10/14 08:00:49;;;;;;;3.42;1.40;;;23.80;50.00;;;;;;2326381;54;21035;-66
2023/10/14 08:03:21;;;;;;;6.78;2.05;;;23.80;49.90;;;;;;2319767;54;21280;-65
2023/10/14 08:05:51;;;;;;;3.33;1.55;;;23.90;50.00;;;;;;2292913;54;20909;-63
2023/10/14 08:08:19;;;;;;;4.97;1.87;;;23.90;50.10;;;;;;2532505;54;20985;-65
2023/10/14 08:10:50;;;;;;;3.87;1.80;;;23.90;50.00;;;;;;2292362;55;21009;-66
2023/10/14 08:13:21;;;;;;;3.33;1.52;;;23.90;50.00;;;;;;2537397;53;21559;-69
2023/10/14 08:15:51;;;;;;;4.40;1.67;;;24.00;50.00;;;;;;2529416;54;20926;-66
2023/10/14 08:18:25;;;;;;;3.35;1.40;;;24.00;50.00;;;;;;2319728;54;20983;-66
2023/10/14 08:20:55;;;;;;;3.40;1.42;;;24.00;49.90;;;;;;2301063;55;21005;-65
2023/10/14 08:23:25;;;;;;;3.12;1.48;;;24.10;49.80;;;;;;2255878;55;20978;-66
2023/10/14 08:25:55;;;;;;;6.03;1.45;;;24.10;49.80;;;;;;2512560;54;21653;-65
2023/10/14 08:28:24;;;;;;;4.32;1.90;;;24.10;49.80;;;;;;2286673;54;22084;-65
2023/10/14 08:30:52;;;;;;;3.85;1.58;;;24.10;49.90;;;;;;2542422;53;20987;-66
2023/10/14 08:33:19;;;;;;;3.00;1.73;;;24.20;49.90;;;;;;2530463;53;20966;-67
2023/10/14 08:35:48;;;;;;;3.25;1.48;;;24.20;50.00;;;;;;2559140;53;21117;-71
2023/10/14 08:38:14;;;;;;;2.92;1.12;;;24.20;50.00;;;;;;2554870;53;21010;-66
2023/10/14 08:40:41;;;;;;;3.35;1.35;;;24.20;50.00;;;;;;2556684;53;21034;-66
2023/10/14 08:43:16;;;;;;;2.40;0.93;;;24.20;50.10;;;;;;2311964;54;20958;-67
2023/10/14 08:45:47;;;;;;;2.85;1.10;;;24.20;50.30;;;;;;2305980;55;20974;-68
2023/10/14 08:48:16;;;;;;;2.80;1.27;;;24.20;50.30;;;;;;2313328;55;21017;-67
2023/10/14 08:50:42;;;;;;;2.53;0.90;;;24.20;50.20;;;;;;2550935;53;21014;-67
2023/10/14 08:53:15;;;;;;;2.00;0.80;;;24.20;50.10;;;;;;2311039;55;20974;-67
2023/10/14 08:55:46;;;;;;;2.33;0.90;;;24.20;50.10;;;;;;2307103;55;21738;-67
2023/10/14 08:58:16;;;;;;;1.83;0.70;;;24.20;50.00;;;;;;2308612;54;20998;-67
2023/10/14 09:00:43;;;;;;;1.85;0.70;;;24.20;49.90;;;;;;2289958;54;20979;-69
2023/10/14 09:03:09;;;;;;;2.28;1.12;;;24.10;49.80;;;;;;2545875;53;20943;-67
2023/10/14 09:05:40;;;;;;;2.62;0.90;;;24.10;49.90;;;;;;2312554;55;20994;-67
2023/10/14 09:08:09;;;;;;;1.70;0.68;;;24.10;49.90;;;;;;2309465;54;20954;-68
2023/10/14 09:10:39;;;;;;;1.62;0.60;;;24.10;50.00;;;;;;2551541;53;21022;-67
2023/10/14 09:13:10;;;;;;;2.22;0.60;;;24.10;50.10;;;;;;2313126;54;20999;-67
2023/10/14 09:15:40;;;;;;;1.48;0.60;;;24.10;50.40;;;;;;2551291;53;20990;-67
2023/10/14 09:18:21;;;;;;;2.30;0.80;;;24.00;50.40;;;;;;2553200;53;21738;-65
2023/10/14 09:20:54;;;;;;;1.30;0.50;;;24.00;50.80;;;;;;2559119;53;21772;-65
2023/10/14 09:23:29;;;;;;;1.70;0.65;;;24.00;51.10;;;;;;2556964;53;20946;-65
2023/10/14 09:26:00;;;;;;;1.40;0.60;;;23.90;50.80;;;;;;2313106;55;21837;-66
2023/10/14 09:28:29;;;;;;;1.58;0.50;;;23.90;50.50;;;;;;2311338;55;20971;-69
2023/10/14 09:30:58;;;;;;;0.60;0.28;;;23.80;50.00;;;;;;2317162;55;20935;-66
2023/10/14 09:33:31;;;;;;;0.30;0.20;;;23.70;49.80;;;;;;2553504;53;21478;-73
2023/10/14 09:36:02;;;;;;;1.27;0.30;;;23.60;49.60;;;;;;2313996;55;21090;-66
2023/10/14 09:38:32;;;;;;;1.87;0.20;;;23.40;49.40;;;;;;2559119;53;21355;-73
2023/10/14 09:41:02;;;;;;;0.15;0.10;;;23.20;49.40;;;;;;2319755;54;21808;-68
2023/10/14 09:43:29;;;;;;;0.30;0.10;;;23.00;49.50;;;;;;2558936;53;21074;-68
2023/10/14 09:45:57;;;;;;;0.37;0.13;;;22.90;49.60;;;;;;2563757;53;20955;-72
2023/10/14 09:48:27;;;;;;;0.25;0.10;;;22.70;49.70;;;;;;2317192;55;20966;-65
2023/10/14 09:50:56;;;;;;;0.52;0.10;;;22.60;50.00;;;;;;2318685;55;20946;-67
2023/10/14 09:53:26;;;;;;;0.32;0.10;;;22.40;49.80;;;;;;2519286;53;20948;-68
2023/10/14 09:56:06;;;;;;;0.57;0.20;;;22.20;49.90;;;;;;2547221;53;20943;-68
2023/10/14 09:58:43;;;;;;;0.70;0.20;;;22.10;50.70;;;;;;2562465;53;21460;-67
2023/10/14 10:01:14;;;;;;;0.68;0.17;;;21.90;50.50;;;;;;2320748;55;21344;-65
2023/10/14 10:04:16;;;;;;;0.20;0.10;;;21.80;51.40;;;;;;2322384;55;22187;-67
2023/10/14 10:07:57;;;;;;;0.08;0.00;;;21.70;52.80;;;;;;2564869;53;21307;-67
2023/10/14 10:10:26;;;;;;;0.70;0.20;;;21.40;53.20;;;;;;2319372;54;21396;-66
2023/10/14 10:12:55;;;;;;;0.60;0.10;;;21.30;53.80;;;;;;2560655;53;21055;-67
2023/10/14 10:15:25;;;;;;;1.02;0.20;;;21.20;54.40;;;;;;2293542;54;20951;-67
2023/10/14 10:18:12;;;;;;;0.62;0.20;;;21.10;55.20;;;;;;2565084;53;21999;-65
2023/10/14 10:20:47;;;;;;;0.55;0.20;;;21.00;55.90;;;;;;2321759;55;20946;-67
2023/10/14 10:23:17;;;;;;;1.50;0.30;;;20.90;56.40;;;;;;2324911;54;20951;-68
2023/10/14 10:25:51;;;;;;;0.22;0.10;;;20.80;56.80;;;;;;2325436;55;21444;-67
2023/10/14 10:28:50;;;;;;;0.10;0.08;;;20.80;57.40;;;;;;2570449;53;20974;-67
2023/10/14 10:31:21;;;;;;;0.32;0.10;;;20.70;57.70;;;;;;2548863;53;21023;-67
2023/10/14 10:33:56;;;;;;;0.40;0.17;;;20.70;58.10;;;;;;2293069;54;1386624;-67
2023/10/14 10:36:29;;;;;;;0.35;0.10;;;20.70;58.40;;;;;;2322793;55;20935;-68
2023/10/14 10:39:05;;;;;;;0.37;0.10;;;20.60;58.60;;;;;;2323297;55;20931;-67
2023/10/14 10:41:37;;;;;;;0.65;0.10;;;20.50;58.70;;;;;;2567774;53;21010;-66
2023/10/14 10:44:05;;;;;;;0.75;0.17;;;20.50;58.70;;;;;;2562120;53;21066;-66
2023/10/14 10:46:43;;;;;;;0.90;0.30;;;20.50;59.00;;;;;;2320579;55;20975;-65
2023/10/14 10:49:12;;;;;;;0.57;0.15;;;20.40;59.20;;;;;;2525610;53;20947;-66
2023/10/14 10:52:12;;;;;;;0.30;0.15;;;20.40;59.10;;;;;;2314174;55;21475;-66
2023/10/14 10:54:42;;;;;;;0.35;0.20;;;20.30;59.10;;;;;;2314647;55;20953;-66
2023/10/14 10:57:11;;;;;;;0.32;0.20;;;20.20;59.20;;;;;;2314943;54;20954;-71
2023/10/14 10:59:38;;;;;;;0.57;0.20;;;20.20;59.50;;;;;;2313780;54;21010;-68
2023/10/14 11:02:11;;;;;;;0.20;0.10;;;20.10;59.50;;;;;;2309577;55;20962;-68
2023/10/14 11:04:39;;;;;;;0.52;0.17;;;20.00;59.70;;;;;;2306519;54;20951;-66
2023/10/14 11:07:12;;;;;;;0.50;0.20;;;19.90;59.90;;;;;;2304248;54;20943;-67
2023/10/14 11:09:41;;;;;;;1.60;0.22;;;19.90;60.20;;;;;;2554560;53;21010;-67
2023/10/14 11:12:09;;;;;;;0.77;0.28;;;19.80;60.20;;;;;;2557627;53;21750;-68
2023/10/14 11:14:35;;;;;;;0.65;0.20;;;19.70;60.30;;;;;;2556582;53;21761;-67
2023/10/14 11:17:02;;;;;;;0.50;0.15;;;19.70;60.40;;;;;;2311769;55;21912;-66
2023/10/14 11:19:32;;;;;;;1.30;0.10;;;19.60;60.40;;;;;;2318177;55;20983;-65
2023/10/14 11:21:58;;;;;;;0.22;0.03;;;19.50;60.50;;;;;;2314877;55;21006;-67
2023/10/14 11:24:25;;;;;;;0.15;0.15;;;19.40;60.70;;;;;;2313194;55;20943;-66
2023/10/14 11:26:58;;;;;;;0.45;0.17;;;19.40;61.00;;;;;;2313074;54;21037;-67
2023/10/14 11:29:28;;;;;;;0.45;0.20;;;19.30;61.20;;;;;;2310760;55;21142;-66
2023/10/14 11:31:57;;;;;;;0.50;0.22;;;19.30;61.40;;;;;;2557845;53;21081;-68
2023/10/14 11:34:24;;;;;;;0.68;0.20;;;19.20;61.40;;;;;;2317143;54;21383;-68
2023/10/14 11:36:51;;;;;;;0.75;0.30;;;19.10;61.40;;;;;;2316881;55;20970;-70
2023/10/14 11:39:25;;;;;;;0.68;0.30;;;19.00;61.50;;;;;;2562889;53;21814;-66
2023/10/14 11:41:52;;;;;;;1.67;0.30;;;19.10;61.50;;;;;;2320522;55;21038;-66
2023/10/14 11:44:18;;;;;;;0.95;0.28;;;19.00;61.20;;;;;;2322994;54;20927;-68
2023/10/14 11:46:46;;;;;;;1.05;0.30;;;18.90;61.00;;;;;;2537118;53;21802;-69
2023/10/14 11:49:14;;;;;;;0.90;0.28;;;18.80;60.80;;;;;;2318961;54;21809;-67
2023/10/14 11:51:44;;;;;;;0.73;0.28;;;18.70;60.80;;;;;;2324136;54;20943;-66
2023/10/14 11:54:11;;;;;;;0.35;0.15;;;18.60;60.90;;;;;;2555117;53;22007;-69
2023/10/14 11:56:41;;;;;;;1.62;0.50;;;18.50;60.90;;;;;;2541472;53;21565;-66
2023/10/14 11:59:15;;;;;;;1.50;0.43;;;18.50;61.20;;;;;;2316305;55;21029;-66
2023/10/14 12:01:45;;;;;;;1.33;0.40;;;18.40;61.50;;;;;;2556937;53;20958;-66
2023/10/14 12:04:11;;;;;;;1.67;0.30;;;18.30;61.70;;;;;;2316340;55;21761;-65
2023/10/14 12:06:38;;;;;;;1.67;0.40;;;18.30;61.80;;;;;;2314499;55;22216;-69
2023/10/14 12:09:05;;;;;;;1.05;0.40;;;18.20;61.90;;;;;;2311551;55;20990;-66
2023/10/14 12:11:43;;;;;;;1.92;0.50;;;18.20;62.10;;;;;;2523960;54;21024;-66
2023/10/14 12:14:11;;;;;;;2.00;0.50;;;18.20;62.20;;;;;;2285011;55;20936;-66
2023/10/14 12:16:42;;;;;;;1.65;0.57;;;18.10;62.20;;;;;;2285504;55;20952;-66
2023/10/14 12:19:12;;;;;;;1.45;0.50;;;18.10;62.30;;;;;;2286226;54;20996;-67
2023/10/14 12:21:42;;;;;;;1.30;0.40;;;18.00;62.30;;;;;;2278783;56;21005;-66
2023/10/14 12:24:09;;;;;;;1.25;0.40;;;18.00;62.10;;;;;;2523527;54;21488;-68
2023/10/14 12:26:43;;;;;;;2.05;0.60;;;18.00;62.00;;;;;;2279269;55;21035;-65
2023/10/14 12:29:12;;;;;;;1.50;0.50;;;17.90;61.90;;;;;;2283542;54;21856;-66
2023/10/14 12:31:43;;;;;;;1.20;0.50;;;17.90;62.00;;;;;;2285274;54;20961;-69
2023/10/14 12:34:10;;;;;;;2.15;0.50;;;17.80;62.20;;;;;;2518845;54;21493;-68
2023/10/14 12:36:40;;;;;;;1.92;0.52;;;17.80;62.40;;;;;;2282282;54;20997;-68
2023/10/14 12:39:21;;;;;;;1.55;0.57;;;17.80;62.40;;;;;;2288114;56;20929;-66
2023/10/14 12:41:49;;;;;;;1.60;0.50;;;17.70;62.30;;;;;;2285212;54;20929;-67
2023/10/14 12:44:18;;;;;;;1.62;0.60;;;17.60;62.20;;;;;;2285261;54;21524;-66
2023/10/14 12:46:45;;;;;;;1.55;0.55;;;17.70;62.20;;;;;;2519611;54;21540;-69
2023/10/14 12:49:17;;;;;;;2.30;0.62;;;17.60;62.40;;;;;;2266969;55;22454;-66
2023/10/14 12:51:44;;;;;;;2.10;0.70;;;17.60;62.70;;;;;;2286705;55;20914;-66
2023/10/14 12:54:16;;;;;;;1.87;0.57;;;17.60;62.80;;;;;;2284800;55;20930;-70
2023/10/14 12:56:52;;;;;;;1.33;0.73;;;17.60;62.90;;;;;;2286088;55;21714;-68
2023/10/14 12:59:18;;;;;;;1.77;0.60;;;17.60;62.90;;;;;;2526757;53;21312;-66
2023/10/14 13:01:56;;;;;;;1.80;0.60;;;17.50;62.90;;;;;;2285235;55;20937;-65
2023/10/14 13:04:23;;;;;;;2.50;0.65;;;17.50;63.10;;;;;;2286213;55;21015;-65
2023/10/14 13:06:49;;;;;;;2.78;0.70;;;17.50;63.10;;;;;;2278581;54;20979;-65
2023/10/14 13:09:16;;;;;;;2.97;0.70;;;17.50;63.10;;;;;;2279826;54;20963;-68
2023/10/14 13:11:43;;;;;;;3.10;0.65;;;17.50;63.20;;;;;;2288967;55;21070;-65
2023/10/14 13:14:10;;;;;;;2.67;0.70;;;17.40;63.30;;;;;;2287759;55;21504;-66
2023/10/14 13:16:38;;;;;;;2.17;0.70;;;17.40;63.30;;;;;;2291477;55;21453;-67
2023/10/14 13:19:08;;;;;;;2.15;0.70;;;17.40;63.50;;;;;;2528220;53;20956;-66
2023/10/14 13:21:41;;;;;;;2.60;0.75;;;17.40;63.60;;;;;;2291346;55;20950;-66
2023/10/14 13:24:11;;;;;;;1.25;0.50;;;17.40;63.70;;;;;;2293209;55;21491;-66
2023/10/14 13:26:39;;;;;;;2.42;0.60;;;17.40;63.70;;;;;;2293830;55;20932;-68
2023/10/14 13:29:06;;;;;;;2.80;0.90;;;17.40;63.80;;;;;;2296857;54;21445;-67
2023/10/14 13:31:32;;;;;;;3.17;0.80;;;17.40;63.90;;;;;;2296293;54;21543;-66
2023/10/14 13:34:01;;;;;;;2.28;0.70;;;17.40;64.00;;;;;;2534736;53;21125;-66
2023/10/14 13:36:29;;;;;;;2.45;0.70;;;17.40;64.10;;;;;;2294848;54;21062;-67